Time;durP1;ratioP1;P1;durP2;ratioP2;P2;SDS_P1;SDS_P2;PMS_P1;PMS_P2;Temp;Humidity;BMP_temperature;BMP_pressure;BME280_temperature;BME280_humidity;BME280_pressure;Samples;Min_cycle;Max_cycle;Signal;HPM_P1;HPM_P2
2022/12/02 00:01:27;;;;;;;96.13;33.43;;;3.00;99.90;;;;;;5106174;28;20515;-58
2022/12/02 00:03:56;;;;;;;92.27;32.17;;;3.00;99.90;;;;;;5108758;28;20206;-58
2022/12/02 00:06:29;;;;;;;92.40;32.30;;;3.00;99.90;;;;;;5107383;28;20195;-58
2022/12/02 00:09:10;;;;;;;89.17;31.93;;;2.90;99.90;;;;;;5105540;28;20195;-58
2022/12/02 00:11:40;;;;;;;87.30;31.60;;;2.90;99.90;;;;;;5101398;28;20211;-58
2022/12/02 00:14:16;;;;;;;91.07;31.53;;;2.90;99.90;;;;;;5108653;28;20198;-58
2022/12/02 00:16:44;;;;;;;91.80;30.60;;;2.90;99.90;;;;;;5103144;28;20182;-57
2022/12/02 00:19:13;;;;;;;92.40;31.93;;;2.90;99.90;;;;;;5099339;28;20238;-57
2022/12/02 00:21:43;;;;;;;92.40;31.77;;;2.80;99.90;;;;;;5102345;28;20187;-57
2022/12/02 00:24:13;;;;;;;85.37;32.17;;;2.80;99.90;;;;;;5102732;28;20214;-57
2022/12/02 00:26:41;;;;;;;95.10;35.50;;;2.80;99.90;;;;;;5099062;28;20199;-57
2022/12/02 00:29:10;;;;;;;105.30;36.20;;;2.80;99.90;;;;;;5104201;28;20194;-58
2022/12/02 00:31:38;;;;;;;93.63;34.07;;;2.80;99.90;;;;;;5093654;28;20195;-57
2022/12/02 00:34:07;;;;;;;104.43;34.87;;;2.70;99.90;;;;;;5103551;28;20656;-57
2022/12/02 00:36:36;;;;;;;103.20;34.73;;;2.70;99.90;;;;;;5084705;28;20749;-58
2022/12/02 00:39:04;;;;;;;100.60;34.00;;;2.70;99.90;;;;;;5103673;28;20195;-57
2022/12/02 00:41:34;;;;;;;110.77;34.73;;;2.70;99.90;;;;;;5100521;28;20277;-58
2022/12/02 00:46:49;;;;;;;98.13;32.60;;;2.60;99.90;;;;;;5094226;28;20191;-57
2022/12/02 00:49:17;;;;;;;101.43;33.33;;;2.60;99.90;;;;;;5105289;28;20194;-57
2022/12/02 00:51:46;;;;;;;106.77;33.03;;;2.60;99.90;;;;;;5124357;28;20197;-58
2022/12/02 00:54:15;;;;;;;95.90;32.47;;;2.60;99.90;;;;;;5099022;28;20192;-58
2022/12/02 00:56:44;;;;;;;101.47;32.40;;;2.60;99.90;;;;;;5103716;28;20219;-58
2022/12/02 00:59:12;;;;;;;99.57;32.97;;;2.70;99.90;;;;;;5104015;28;20200;-57
2022/12/02 01:01:43;;;;;;;108.13;35.37;;;2.60;99.90;;;;;;5103163;28;20240;-58
2022/12/02 01:04:11;;;;;;;100.33;34.43;;;2.70;99.90;;;;;;5097714;28;20221;-57
2022/12/02 01:06:40;;;;;;;104.37;33.30;;;2.60;99.90;;;;;;5103059;28;20199;-57
2022/12/02 01:09:09;;;;;;;102.50;34.07;;;2.70;99.90;;;;;;5103486;28;20194;-58
2022/12/02 01:11:37;;;;;;;105.30;35.23;;;2.60;99.90;;;;;;5108902;28;20193;-57
2022/12/02 01:14:06;;;;;;;103.23;35.13;;;2.60;99.90;;;;;;5105709;28;20195;-57
2022/12/02 01:16:35;;;;;;;116.83;36.03;;;2.60;99.90;;;;;;5095849;28;20190;-58
2022/12/02 01:19:03;;;;;;;98.83;33.03;;;2.60;99.90;;;;;;5110083;28;20295;-57
2022/12/02 01:21:32;;;;;;;102.30;34.67;;;2.60;99.90;;;;;;5100928;28;20196;-58
2022/12/02 01:24:01;;;;;;;108.27;34.33;;;2.70;99.90;;;;;;5099246;28;20191;-57
2022/12/02 01:26:29;;;;;;;105.43;33.60;;;2.60;99.90;;;;;;5104311;28;20217;-58
2022/12/02 01:28:57;;;;;;;96.50;33.07;;;2.60;99.90;;;;;;5108156;28;20210;-57
2022/12/02 01:31:27;;;;;;;96.70;32.43;;;2.60;99.90;;;;;;5100796;28;20195;-57
2022/12/02 01:33:56;;;;;;;92.97;31.20;;;2.60;99.90;;;;;;5107134;28;20285;-58
2022/12/02 01:36:24;;;;;;;92.10;33.07;;;2.60;99.90;;;;;;5115811;28;20205;-57
2022/12/02 01:38:52;;;;;;;103.90;33.00;;;2.60;99.90;;;;;;5109278;28;20652;-58
2022/12/02 01:41:21;;;;;;;103.10;33.13;;;2.60;99.90;;;;;;5098052;28;20557;-57
2022/12/02 01:43:49;;;;;;;94.30;32.70;;;2.70;99.90;;;;;;5098502;28;20550;-57
2022/12/02 01:46:18;;;;;;;103.47;33.07;;;2.70;99.90;;;;;;5101301;28;20571;-58
2022/12/02 01:48:48;;;;;;;104.57;34.23;;;2.70;99.90;;;;;;5104663;28;20191;-57
2022/12/02 01:51:17;;;;;;;99.30;33.07;;;2.70;99.90;;;;;;5097600;28;20265;-56
2022/12/02 01:53:46;;;;;;;104.73;32.13;;;2.80;99.90;;;;;;5105793;28;20199;-58
2022/12/02 01:56:14;;;;;;;99.03;32.30;;;2.80;99.90;;;;;;5105529;28;20202;-57
2022/12/02 01:58:42;;;;;;;107.03;33.73;;;2.80;99.90;;;;;;5106882;28;20199;-58
2022/12/02 02:01:24;;;;;;;100.00;34.43;;;2.80;99.90;;;;;;5106161;28;20201;-57
2022/12/02 02:03:54;;;;;;;101.13;32.37;;;2.90;99.90;;;;;;5104688;28;20205;-57
2022/12/02 02:06:24;;;;;;;101.53;34.00;;;2.90;99.90;;;;;;5107195;28;20210;-58
2022/12/02 02:08:53;;;;;;;108.17;34.77;;;2.90;99.90;;;;;;5108067;28;20195;-58
2022/12/02 02:11:23;;;;;;;105.67;34.13;;;3.00;99.90;;;;;;5101426;28;20201;-58
2022/12/02 02:13:52;;;;;;;108.07;35.07;;;3.00;99.90;;;;;;5106756;27;20762;-58
2022/12/02 02:16:20;;;;;;;102.67;34.40;;;3.10;99.90;;;;;;5104340;28;20199;-58
2022/12/02 02:18:48;;;;;;;113.67;34.63;;;3.10;99.90;;;;;;5101978;27;20227;-58
2022/12/02 02:21:22;;;;;;;113.40;36.97;;;3.20;99.90;;;;;;5100611;28;20275;-58
2022/12/02 02:23:52;;;;;;;99.10;33.80;;;3.20;99.90;;;;;;5105946;28;20198;-58
2022/12/02 02:26:21;;;;;;;104.50;34.27;;;3.20;99.90;;;;;;5100491;28;20704;-57
2022/12/02 02:28:49;;;;;;;112.93;34.27;;;3.30;99.90;;;;;;5098430;28;20273;-57
2022/12/02 02:31:17;;;;;;;107.50;34.90;;;3.30;99.90;;;;;;5108750;28;20217;-57
2022/12/02 02:33:47;;;;;;;115.40;35.00;;;3.30;99.90;;;;;;5110990;28;20219;-57
2022/12/02 02:36:15;;;;;;;110.17;35.87;;;3.40;99.90;;;;;;5110979;28;20245;-57
2022/12/02 02:38:45;;;;;;;108.83;34.73;;;3.40;99.90;;;;;;5106164;28;20563;-57
2022/12/02 02:41:15;;;;;;;110.33;34.67;;;3.40;99.90;;;;;;5104234;28;20205;-57
2022/12/02 02:43:43;;;;;;;108.03;35.60;;;3.40;99.90;;;;;;5110728;28;20267;-58
2022/12/02 02:46:12;;;;;;;97.00;33.97;;;3.40;99.90;;;;;;5102430;27;20209;-57
2022/12/02 02:48:42;;;;;;;103.33;34.73;;;3.50;99.90;;;;;;5109970;28;20706;-58
2022/12/02 02:51:11;;;;;;;106.83;35.10;;;3.50;99.90;;;;;;5105247;28;20197;-58
2022/12/02 02:53:40;;;;;;;109.93;35.70;;;3.50;99.90;;;;;;5105782;28;20700;-57
2022/12/02 02:56:09;;;;;;;110.27;36.13;;;3.50;99.90;;;;;;5104972;28;20602;-57
2022/12/02 02:58:39;;;;;;;101.50;33.97;;;3.50;99.90;;;;;;5100927;28;20194;-57
2022/12/02 03:01:11;;;;;;;111.20;36.23;;;3.50;99.90;;;;;;5111737;27;20210;-57
2022/12/02 03:03:44;;;;;;;106.87;33.47;;;3.50;99.90;;;;;;5106892;28;20301;-57
2022/12/02 03:06:14;;;;;;;111.23;35.00;;;3.60;99.90;;;;;;5105908;28;20209;-57
2022/12/02 03:08:45;;;;;;;108.60;34.63;;;3.50;99.90;;;;;;5102698;28;20192;-57
2022/12/02 03:11:14;;;;;;;100.40;32.57;;;3.60;99.90;;;;;;5095834;28;20229;-58
2022/12/02 03:13:46;;;;;;;106.40;34.57;;;3.60;99.90;;;;;;5101989;28;20195;-57
2022/12/02 03:16:18;;;;;;;109.10;33.60;;;3.60;99.90;;;;;;5101096;28;20195;-57
2022/12/02 03:18:47;;;;;;;99.30;33.93;;;3.60;99.90;;;;;;5104245;28;20235;-57
2022/12/02 03:21:17;;;;;;;102.87;34.27;;;3.70;99.90;;;;;;5105948;28;20574;-57
2022/12/02 03:23:46;;;;;;;112.43;35.17;;;3.70;99.90;;;;;;5101170;28;20273;-58
2022/12/02 03:26:18;;;;;;;110.90;35.53;;;3.70;99.90;;;;;;5104319;28;20204;-57
2022/12/02 03:28:49;;;;;;;108.07;35.43;;;3.70;99.90;;;;;;5110129;28;20195;-57
2022/12/02 03:31:18;;;;;;;109.70;34.00;;;3.70;99.90;;;;;;5110265;28;20218;-58
2022/12/02 03:33:46;;;;;;;112.17;36.13;;;3.70;99.90;;;;;;5112225;28;20205;-58
2022/12/02 03:36:15;;;;;;;107.27;35.80;;;3.70;99.90;;;;;;5104187;28;20537;-58
2022/12/02 03:38:44;;;;;;;105.20;35.63;;;3.70;99.90;;;;;;5087881;28;20289;-58
2022/12/02 03:41:13;;;;;;;100.17;34.60;;;3.70;99.90;;;;;;5108989;28;20198;-58
2022/12/02 03:43:42;;;;;;;106.47;34.77;;;3.70;99.90;;;;;;5104975;28;20193;-58
2022/12/02 03:46:12;;;;;;;108.13;36.40;;;3.70;99.90;;;;;;5108967;28;20207;-58
2022/12/02 03:48:41;;;;;;;106.23;34.87;;;3.70;99.90;;;;;;5100622;28;20199;-57
2022/12/02 03:51:11;;;;;;;104.20;34.60;;;3.80;99.90;;;;;;5109819;28;20200;-58
2022/12/02 03:53:40;;;;;;;110.20;36.80;;;3.80;99.90;;;;;;5110394;27;20195;-58
2022/12/02 03:56:10;;;;;;;107.23;36.70;;;3.80;99.90;;;;;;5104554;28;20183;-58
2022/12/02 03:58:44;;;;;;;105.60;34.33;;;3.80;99.90;;;;;;5099984;28;20594;-58
2022/12/02 04:01:15;;;;;;;107.57;36.87;;;3.80;99.90;;;;;;5101724;28;20197;-58
2022/12/02 04:03:44;;;;;;;106.57;34.57;;;3.80;99.90;;;;;;5099701;27;20183;-58
2022/12/02 04:06:15;;;;;;;119.73;38.60;;;3.80;99.90;;;;;;5105029;28;20218;-58
2022/12/02 04:08:43;;;;;;;111.97;35.37;;;3.80;99.90;;;;;;5099940;27;20183;-58
2022/12/02 04:11:12;;;;;;;100.40;34.33;;;3.80;99.90;;;;;;5103710;28;20191;-58
2022/12/02 04:13:40;;;;;;;105.57;33.87;;;3.80;99.90;;;;;;5106573;28;20609;-58
2022/12/02 04:16:08;;;;;;;111.93;35.00;;;3.80;99.90;;;;;;5106728;28;20556;-58
2022/12/02 04:18:38;;;;;;;109.80;35.63;;;3.80;99.90;;;;;;5094757;28;20294;-58
2022/12/02 04:21:07;;;;;;;108.00;35.80;;;3.80;99.90;;;;;;5108154;28;20195;-58
2022/12/02 04:23:35;;;;;;;114.33;37.10;;;3.80;99.90;;;;;;5100689;28;20196;-58
2022/12/02 04:26:04;;;;;;;114.03;36.63;;;3.80;99.90;;;;;;5102844;28;20613;-58
2022/12/02 04:28:32;;;;;;;111.17;36.73;;;3.80;99.90;;;;;;5101453;28;20191;-57
2022/12/02 04:31:00;;;;;;;111.20;34.87;;;3.90;99.90;;;;;;5101037;28;20207;-58
2022/12/02 04:33:29;;;;;;;110.70;34.63;;;3.90;99.90;;;;;;5107053;28;20729;-58
2022/12/02 04:35:59;;;;;;;108.57;35.03;;;3.90;99.90;;;;;;5109414;28;20554;-57
2022/12/02 04:38:27;;;;;;;114.17;35.40;;;3.90;99.90;;;;;;5104444;27;20195;-57
2022/12/02 04:40:56;;;;;;;113.87;36.10;;;3.90;99.90;;;;;;5097930;28;20205;-57
2022/12/02 04:43:24;;;;;;;102.53;35.53;;;3.90;99.90;;;;;;5097841;28;20195;-58
2022/12/02 04:45:52;;;;;;;113.40;36.67;;;3.90;99.90;;;;;;5102581;28;20199;-58
2022/12/02 04:48:20;;;;;;;109.60;36.37;;;3.90;99.90;;;;;;5101755;28;20199;-58
2022/12/02 04:50:48;;;;;;;104.27;34.50;;;3.90;99.90;;;;;;5108850;28;20652;-57
2022/12/02 04:53:18;;;;;;;107.00;34.93;;;3.90;99.90;;;;;;5106554;28;20553;-58
2022/12/02 04:55:47;;;;;;;104.07;35.50;;;3.90;99.90;;;;;;5106627;28;20668;-57
2022/12/02 04:58:15;;;;;;;125.63;38.10;;;3.90;99.90;;;;;;5093408;28;20198;-57
2022/12/02 05:00:43;;;;;;;106.97;35.43;;;3.90;99.90;;;;;;5101642;28;20195;-57
2022/12/02 05:03:12;;;;;;;111.03;36.27;;;3.90;99.90;;;;;;5109380;28;20664;-57
2022/12/02 05:05:40;;;;;;;118.77;38.50;;;3.90;99.90;;;;;;5099397;28;20281;-58
2022/12/02 05:08:09;;;;;;;117.27;37.13;;;3.90;99.90;;;;;;5109791;27;20221;-57
2022/12/02 05:10:39;;;;;;;116.47;36.00;;;3.90;99.90;;;;;;5102930;27;20190;-57
2022/12/02 05:13:07;;;;;;;108.87;35.80;;;3.90;99.90;;;;;;5105417;28;20190;-58
2022/12/02 05:15:35;;;;;;;113.57;36.53;;;3.90;99.90;;;;;;5108195;28;20202;-57
2022/12/02 05:18:04;;;;;;;121.27;35.97;;;3.90;99.90;;;;;;5103421;28;20246;-57
2022/12/02 05:20:32;;;;;;;119.47;36.33;;;3.90;99.90;;;;;;5111835;28;20191;-57
2022/12/02 05:23:00;;;;;;;118.37;36.73;;;3.90;99.90;;;;;;5103123;28;20717;-57
2022/12/02 05:25:29;;;;;;;117.03;37.10;;;3.90;99.90;;;;;;5106139;28;20266;-57
2022/12/02 05:27:59;;;;;;;114.03;35.40;;;3.90;99.90;;;;;;5113137;28;20206;-57
2022/12/02 05:30:27;;;;;;;110.17;36.53;;;4.00;99.90;;;;;;5102790;28;20669;-57
2022/12/02 05:32:55;;;;;;;117.70;36.47;;;4.00;99.90;;;;;;5106631;27;20205;-57
2022/12/02 05:35:24;;;;;;;130.57;37.30;;;4.00;99.90;;;;;;5109131;28;20207;-57
2022/12/02 05:37:52;;;;;;;118.13;36.80;;;4.00;99.90;;;;;;5105465;28;20206;-57
2022/12/02 05:40:23;;;;;;;123.33;37.33;;;4.00;99.90;;;;;;5107037;28;20195;-57
2022/12/02 05:42:51;;;;;;;119.07;37.47;;;4.00;99.90;;;;;;5110080;28;20278;-58
2022/12/02 05:45:25;;;;;;;114.57;36.80;;;4.00;99.90;;;;;;5102709;28;20214;-57
2022/12/02 05:47:54;;;;;;;125.13;38.43;;;4.00;99.90;;;;;;5107723;28;20233;-58
2022/12/02 05:50:25;;;;;;;109.83;36.37;;;4.00;99.90;;;;;;5113158;28;20186;-57
2022/12/02 05:52:53;;;;;;;124.53;36.13;;;4.00;99.90;;;;;;5103775;28;20199;-57
2022/12/02 05:55:22;;;;;;;120.87;37.37;;;4.00;99.90;;;;;;5107169;28;20191;-57
2022/12/02 05:57:51;;;;;;;114.63;37.47;;;4.00;99.90;;;;;;5112246;28;20187;-57
2022/12/02 06:00:23;;;;;;;120.17;37.83;;;4.00;99.90;;;;;;5108382;28;20194;-57
2022/12/02 06:02:54;;;;;;;120.37;36.13;;;4.00;99.90;;;;;;5101144;28;20198;-57
2022/12/02 06:05:24;;;;;;;123.40;38.30;;;4.00;99.90;;;;;;5105515;28;20201;-57
2022/12/02 06:07:55;;;;;;;121.77;38.83;;;4.00;99.90;;;;;;5101940;28;20272;-57
2022/12/02 06:10:27;;;;;;;132.17;38.40;;;4.00;99.90;;;;;;5105220;28;20193;-57
2022/12/02 06:13:00;;;;;;;133.03;38.13;;;4.00;99.90;;;;;;5098382;28;20634;-57
2022/12/02 06:15:36;;;;;;;133.37;40.10;;;4.00;99.90;;;;;;5109448;27;20202;-57
2022/12/02 06:18:14;;;;;;;126.73;37.80;;;4.00;99.90;;;;;;5102763;27;20222;-57
2022/12/02 06:20:43;;;;;;;128.33;38.20;;;4.10;99.90;;;;;;5105487;27;20190;-57
2022/12/02 06:23:15;;;;;;;126.73;37.87;;;4.00;99.90;;;;;;5103079;28;20201;-58
2022/12/02 06:25:45;;;;;;;124.87;38.40;;;4.10;99.90;;;;;;5109761;27;20197;-57
2022/12/02 06:28:23;;;;;;;125.17;38.83;;;4.00;99.90;;;;;;5111290;27;20223;-57
2022/12/02 06:30:55;;;;;;;134.13;38.97;;;4.10;99.90;;;;;;5108958;28;20209;-57
2022/12/02 06:33:28;;;;;;;133.73;39.70;;;4.10;99.90;;;;;;5097535;28;21325;-58
2022/12/02 06:35:59;;;;;;;131.57;39.23;;;4.10;99.90;;;;;;5100509;27;20638;-57
2022/12/02 06:38:30;;;;;;;144.07;41.17;;;4.20;99.90;;;;;;5104964;28;20649;-57
2022/12/02 06:41:02;;;;;;;152.47;42.30;;;4.20;99.90;;;;;;5106100;28;20192;-57
2022/12/02 06:43:31;;;;;;;147.03;42.03;;;4.20;99.90;;;;;;5108275;28;20230;-57
2022/12/02 06:46:01;;;;;;;151.33;44.37;;;4.30;99.90;;;;;;5102484;28;20190;-57
2022/12/02 06:48:32;;;;;;;152.13;43.87;;;4.20;99.90;;;;;;5097668;28;20221;-57
2022/12/02 06:51:11;;;;;;;155.90;44.50;;;4.20;99.90;;;;;;5100098;28;20207;-57
2022/12/02 06:53:41;;;;;;;173.77;48.17;;;4.30;99.90;;;;;;5103350;27;20527;-57
2022/12/02 06:56:21;;;;;;;168.73;45.70;;;4.30;99.90;;;;;;5104586;28;20673;-57
2022/12/02 06:58:57;;;;;;;171.23;45.23;;;4.30;99.90;;;;;;5083625;28;20186;-57
2022/12/02 07:01:33;;;;;;;174.30;48.23;;;4.40;99.90;;;;;;5098441;28;20248;-56
2022/12/02 07:04:24;;;;;;;178.87;49.13;;;4.30;99.90;;;;;;5100035;28;20537;-57
2022/12/02 07:06:58;;;;;;;175.00;47.40;;;4.30;99.90;;;;;;5101937;28;20199;-57
2022/12/02 07:09:35;;;;;;;169.10;47.13;;;4.40;99.90;;;;;;5102785;27;20250;-57
2022/12/02 07:12:11;;;;;;;168.43;48.53;;;4.40;99.90;;;;;;5111920;27;20222;-57
2022/12/02 07:14:45;;;;;;;180.73;49.53;;;4.40;99.90;;;;;;5100705;27;20629;-55
2022/12/02 07:17:23;;;;;;;182.97;49.07;;;4.40;99.90;;;;;;5111636;28;20186;-57
2022/12/02 07:19:58;;;;;;;190.43;49.57;;;4.50;99.90;;;;;;5103138;28;20299;-57
2022/12/02 07:22:33;;;;;;;199.37;52.70;;;4.40;99.90;;;;;;5093470;28;20229;-57
2022/12/02 07:25:29;;;;;;;191.40;52.10;;;4.40;99.90;;;;;;5092857;28;20198;-57
2022/12/02 07:27:58;;;;;;;197.30;51.23;;;4.40;99.90;;;;;;5092403;28;20215;-56
2022/12/02 07:30:30;;;;;;;183.90;50.73;;;4.40;99.90;;;;;;5110522;28;20647;-57
2022/12/02 07:33:00;;;;;;;197.13;50.10;;;4.40;99.90;;;;;;5112856;28;20205;-56
2022/12/02 07:35:29;;;;;;;187.53;50.17;;;4.40;99.90;;;;;;5111868;28;20198;-57
2022/12/02 07:37:57;;;;;;;193.97;49.30;;;4.40;99.90;;;;;;5108049;28;20194;-57
2022/12/02 07:40:28;;;;;;;215.27;50.67;;;4.40;99.90;;;;;;5108653;28;20194;-56
2022/12/02 07:42:56;;;;;;;176.27;44.77;;;4.40;99.90;;;;;;5099015;28;20196;-57
2022/12/02 07:45:25;;;;;;;156.23;42.60;;;4.40;99.90;;;;;;5113410;27;20191;-57
2022/12/02 07:47:53;;;;;;;153.47;40.43;;;4.30;99.90;;;;;;5112036;27;20307;-58
2022/12/02 07:50:24;;;;;;;151.03;40.17;;;4.20;99.90;;;;;;5105808;28;20205;-57
2022/12/02 07:52:53;;;;;;;154.13;39.83;;;4.20;99.90;;;;;;5108864;28;20629;-56
2022/12/02 07:55:21;;;;;;;136.77;38.37;;;4.20;99.90;;;;;;5103284;28;20191;-57
2022/12/02 07:57:54;;;;;;;146.57;37.13;;;4.10;99.90;;;;;;5100334;28;20282;-56
2022/12/02 08:00:23;;;;;;;148.10;39.40;;;4.10;99.90;;;;;;5102881;28;20196;-57
2022/12/02 08:02:54;;;;;;;143.40;39.37;;;4.20;99.90;;;;;;5101515;28;20197;-57
2022/12/02 08:05:24;;;;;;;151.17;40.43;;;4.10;99.90;;;;;;5105779;28;20196;-57
2022/12/02 08:07:53;;;;;;;144.00;39.27;;;4.10;99.90;;;;;;5104971;28;20191;-57
2022/12/02 08:10:21;;;;;;;142.40;38.37;;;4.10;99.90;;;;;;5105982;28;20226;-57
2022/12/02 08:12:50;;;;;;;135.37;38.57;;;4.00;99.90;;;;;;5107417;28;20205;-56
2022/12/02 08:15:21;;;;;;;128.73;36.10;;;4.00;99.90;;;;;;5098813;28;20214;-56
2022/12/02 08:17:49;;;;;;;124.00;35.87;;;4.00;99.90;;;;;;5101401;28;20191;-57
2022/12/02 08:20:18;;;;;;;125.27;35.67;;;3.90;99.90;;;;;;5107897;28;20201;-57
2022/12/02 08:22:47;;;;;;;124.63;33.70;;;3.90;99.90;;;;;;5106960;28;20195;-57
2022/12/02 08:25:16;;;;;;;114.10;33.47;;;3.90;99.90;;;;;;5100792;28;20204;-57
2022/12/02 08:27:44;;;;;;;101.70;30.33;;;3.90;99.90;;;;;;5112331;28;20212;-56
2022/12/02 08:30:16;;;;;;;106.80;32.83;;;3.90;99.90;;;;;;5105820;28;20187;-57
2022/12/02 08:32:44;;;;;;;111.47;32.03;;;3.90;99.90;;;;;;5106161;28;20197;-56
2022/12/02 08:35:13;;;;;;;111.80;31.83;;;3.90;99.90;;;;;;5106415;28;20197;-57
2022/12/02 08:37:42;;;;;;;105.00;31.73;;;3.80;99.90;;;;;;5107093;28;20209;-57
2022/12/02 08:40:12;;;;;;;102.77;32.27;;;3.80;99.90;;;;;;5110089;28;20198;-57
2022/12/02 08:42:42;;;;;;;103.07;31.13;;;3.80;99.90;;;;;;5110272;28;20198;-57
2022/12/02 08:45:10;;;;;;;96.90;30.73;;;3.80;99.90;;;;;;5121299;27;20629;-57
2022/12/02 08:47:39;;;;;;;101.27;31.47;;;3.80;99.90;;;;;;5110692;28;20632;-57
2022/12/02 08:50:08;;;;;;;100.37;31.87;;;3.80;99.90;;;;;;5109961;28;20269;-57
2022/12/02 08:52:36;;;;;;;100.40;29.87;;;3.80;99.90;;;;;;5110176;28;20206;-57
2022/12/02 08:55:06;;;;;;;90.93;30.43;;;3.80;99.90;;;;;;5101373;28;20199;-57
2022/12/02 08:57:35;;;;;;;92.50;29.47;;;3.80;99.90;;;;;;5110986;28;20537;-57
2022/12/02 09:00:04;;;;;;;99.93;30.57;;;3.70;99.90;;;;;;5111186;28;20201;-57
2022/12/02 09:02:33;;;;;;;98.20;30.53;;;3.80;99.90;;;;;;5107764;28;20523;-56
2022/12/02 09:05:02;;;;;;;91.27;29.97;;;3.70;99.90;;;;;;5110867;28;20241;-57
2022/12/02 09:07:30;;;;;;;98.60;30.93;;;3.80;99.90;;;;;;5111630;28;20521;-56
2022/12/02 09:09:59;;;;;;;91.00;31.03;;;3.80;99.90;;;;;;5111229;28;20272;-57
2022/12/02 09:12:27;;;;;;;96.40;30.47;;;3.80;99.90;;;;;;5104697;28;20190;-57
2022/12/02 09:14:57;;;;;;;95.13;31.73;;;3.80;99.90;;;;;;5105238;28;20281;-56
2022/12/02 09:17:26;;;;;;;91.67;30.90;;;3.80;99.90;;;;;;5108272;28;20633;-57
2022/12/02 09:19:54;;;;;;;102.10;31.33;;;3.80;99.90;;;;;;5108352;28;20699;-57
2022/12/02 09:22:22;;;;;;;93.37;30.43;;;3.80;99.90;;;;;;5108951;28;20194;-57
2022/12/02 09:24:51;;;;;;;88.90;29.07;;;3.80;99.90;;;;;;5110851;27;20190;-56
2022/12/02 09:27:20;;;;;;;90.37;30.23;;;3.80;99.90;;;;;;5110568;28;20234;-57
2022/12/02 09:29:48;;;;;;;84.73;27.73;;;3.70;99.90;;;;;;5103915;28;20692;-57
2022/12/02 09:32:18;;;;;;;89.97;28.67;;;3.70;99.90;;;;;;5101947;28;20199;-57
2022/12/02 09:34:46;;;;;;;77.73;27.87;;;3.70;99.90;;;;;;5112009;27;20201;-57
2022/12/02 09:37:15;;;;;;;90.47;28.97;;;3.70;99.90;;;;;;5111929;28;20243;-57
2022/12/02 09:39:43;;;;;;;84.43;27.60;;;3.70;99.90;;;;;;5102228;28;20195;-57
2022/12/02 09:42:12;;;;;;;80.20;26.77;;;3.70;99.90;;;;;;5103723;28;20203;-57
2022/12/02 09:44:41;;;;;;;73.73;25.53;;;3.70;99.90;;;;;;5106570;28;20202;-57
2022/12/02 09:47:11;;;;;;;79.00;27.00;;;3.70;99.90;;;;;;5104384;28;20195;-56
2022/12/02 09:49:43;;;;;;;69.90;24.63;;;3.70;99.90;;;;;;5106001;28;20225;-57
2022/12/02 09:52:15;;;;;;;66.13;24.27;;;3.70;99.90;;;;;;5109423;28;20198;-57
2022/12/02 09:54:49;;;;;;;65.77;23.87;;;3.70;99.90;;;;;;5112887;28;20194;-57
2022/12/02 09:57:19;;;;;;;57.87;22.20;;;3.70;99.90;;;;;;5113583;28;20198;-57
2022/12/02 09:59:47;;;;;;;57.90;22.80;;;3.70;99.90;;;;;;5110705;28;20198;-57
2022/12/02 10:02:24;;;;;;;61.03;23.07;;;3.80;99.90;;;;;;5102572;28;20192;-57
2022/12/02 10:04:55;;;;;;;65.20;24.47;;;3.80;99.90;;;;;;5107526;28;20190;-57
2022/12/02 10:07:23;;;;;;;58.37;23.10;;;3.80;99.90;;;;;;5110386;28;20198;-57
2022/12/02 10:09:51;;;;;;;67.60;23.87;;;3.90;99.90;;;;;;5110170;28;20215;-56
2022/12/02 10:12:20;;;;;;;63.63;22.70;;;3.80;99.90;;;;;;5107284;28;20205;-56
2022/12/02 10:14:50;;;;;;;58.93;22.23;;;3.80;99.90;;;;;;5100796;28;20207;-57
2022/12/02 10:17:21;;;;;;;58.67;22.97;;;3.90;99.90;;;;;;5110728;28;20195;-56
2022/12/02 10:19:51;;;;;;;61.70;23.83;;;3.90;99.90;;;;;;5107681;28;20310;-57
2022/12/02 10:22:21;;;;;;;56.53;23.20;;;4.00;99.90;;;;;;5109520;28;20193;-57
2022/12/02 10:24:49;;;;;;;57.73;22.97;;;4.00;99.90;;;;;;5112734;28;20195;-56
2022/12/02 10:27:26;;;;;;;54.53;21.67;;;4.00;99.90;;;;;;5105842;27;20252;-56
2022/12/02 10:30:13;;;;;;;53.17;22.23;;;4.00;99.90;;;;;;5109057;28;20212;-56
2022/12/02 10:32:42;;;;;;;54.93;21.33;;;4.00;99.90;;;;;;5109227;28;20576;-57
2022/12/02 10:35:11;;;;;;;52.70;21.47;;;4.00;99.90;;;;;;5110261;28;20273;-56
2022/12/02 10:37:40;;;;;;;53.03;21.23;;;4.00;99.90;;;;;;5102405;28;20214;-54
2022/12/02 10:40:14;;;;;;;52.53;20.03;;;4.00;99.90;;;;;;5125995;27;20197;-57
2022/12/02 10:42:43;;;;;;;51.23;20.77;;;3.90;99.90;;;;;;5101916;28;20641;-57
2022/12/02 10:45:18;;;;;;;57.43;20.03;;;4.00;99.90;;;;;;5108577;28;20213;-57
2022/12/02 10:47:47;;;;;;;51.03;20.37;;;4.00;99.90;;;;;;5106974;28;20191;-56
2022/12/02 10:50:21;;;;;;;57.90;20.40;;;4.00;99.90;;;;;;5107512;28;20261;-57
2022/12/02 10:52:53;;;;;;;48.33;19.63;;;3.90;99.90;;;;;;5106207;28;20201;-57
2022/12/02 10:55:22;;;;;;;53.33;20.90;;;3.90;99.90;;;;;;5096485;28;20195;-57
2022/12/02 10:57:51;;;;;;;56.37;20.83;;;3.90;99.90;;;;;;5101091;28;20194;-56
2022/12/02 11:00:22;;;;;;;50.70;20.90;;;3.90;99.90;;;;;;5102331;28;20191;-56
2022/12/02 11:03:06;;;;;;;54.50;20.87;;;3.90;99.90;;;;;;5107217;28;20664;-57
2022/12/02 11:05:36;;;;;;;61.00;21.80;;;4.00;99.90;;;;;;5106774;28;20281;-56
2022/12/02 11:08:16;;;;;;;57.87;22.33;;;4.10;99.90;;;;;;5107521;27;20204;-56
2022/12/02 11:10:49;;;;;;;65.53;23.20;;;4.00;99.90;;;;;;5102210;28;20222;-56
2022/12/02 11:13:32;;;;;;;56.27;23.23;;;4.00;99.90;;;;;;5109343;28;20195;-57
2022/12/02 11:16:39;;;;;;;62.30;22.07;;;3.90;99.90;;;;;;5096887;28;20208;-57
2022/12/02 11:19:43;;;;;;;60.63;21.53;;;4.00;99.90;;;;;;5110618;28;20232;-56
2022/12/02 11:22:49;;;;;;;58.23;23.90;;;3.90;99.90;;;;;;5108124;28;20226;-56
2022/12/02 11:25:55;;;;;;;60.37;22.10;;;3.90;99.90;;;;;;5105970;28;20194;-56
2022/12/02 11:28:52;;;;;;;53.73;21.33;;;4.00;99.90;;;;;;5103860;28;20653;-56
2022/12/02 11:31:24;;;;;;;58.33;20.70;;;3.90;99.90;;;;;;5098104;27;20229;-56
2022/12/02 11:34:21;;;;;;;53.00;20.83;;;3.80;99.90;;;;;;5112074;28;20259;-57
2022/12/02 11:37:39;;;;;;;59.67;22.10;;;3.90;99.90;;;;;;5100310;28;20206;-57
2022/12/02 11:40:40;;;;;;;56.47;20.87;;;3.90;99.90;;;;;;5107328;28;20190;-57
2022/12/02 11:43:42;;;;;;;56.20;19.67;;;4.00;99.90;;;;;;5100055;27;20700;-56
2022/12/02 11:46:11;;;;;;;52.80;19.67;;;3.90;99.90;;;;;;5104440;27;20221;-56
2022/12/02 11:48:45;;;;;;;52.37;20.53;;;3.90;99.90;;;;;;5100150;28;20275;-56
2022/12/02 11:51:30;;;;;;;47.97;19.30;;;3.90;99.90;;;;;;5088176;28;20230;-56
2022/12/02 11:54:00;;;;;;;50.50;18.93;;;4.00;99.90;;;;;;5107197;28;20278;-56
2022/12/02 11:56:34;;;;;;;51.67;20.03;;;4.00;99.90;;;;;;5101308;28;20206;-56
2022/12/02 11:59:16;;;;;;;49.43;19.43;;;4.00;99.90;;;;;;5101791;28;20201;-57
2022/12/02 12:01:44;;;;;;;48.17;19.57;;;4.10;99.90;;;;;;5098049;28;20183;-56
2022/12/02 12:04:24;;;;;;;45.70;18.53;;;4.10;99.90;;;;;;5102429;28;20203;-54
2022/12/02 12:06:57;;;;;;;40.97;17.40;;;4.10;99.90;;;;;;5092333;28;20218;-56
2022/12/02 12:09:26;;;;;;;46.63;18.23;;;4.10;99.90;;;;;;5105586;28;20201;-56
2022/12/02 12:12:11;;;;;;;36.40;15.63;;;4.10;99.90;;;;;;5108880;28;20206;-56
2022/12/02 12:17:43;;;;;;;36.80;14.90;;;4.10;99.90;;;;;;5000380;27;20649;-58
2022/12/02 12:20:45;;;;;;;40.93;16.23;;;4.10;99.90;;;;;;5005553;28;20281;-58
2022/12/02 12:23:31;;;;;;;39.70;15.90;;;4.10;99.90;;;;;;4998531;28;20209;-57
2022/12/02 12:25:59;;;;;;;32.57;15.23;;;4.20;99.90;;;;;;4997059;28;20653;-58
2022/12/02 12:28:29;;;;;;;36.20;15.57;;;4.20;99.90;;;;;;5002172;28;20190;-58
2022/12/02 12:30:58;;;;;;;39.37;16.10;;;4.10;99.90;;;;;;4988023;28;20556;-58
2022/12/02 12:33:29;;;;;;;38.57;16.57;;;4.10;99.90;;;;;;4992333;28;20648;-57
2022/12/02 12:35:58;;;;;;;38.70;15.63;;;4.10;99.90;;;;;;4993903;28;20672;-58
2022/12/02 12:38:28;;;;;;;41.67;17.10;;;4.10;99.90;;;;;;5000119;28;20214;-58
2022/12/02 12:40:58;;;;;;;38.47;16.37;;;4.10;99.90;;;;;;5000944;28;20703;-58
2022/12/02 12:43:27;;;;;;;41.40;16.57;;;4.10;99.90;;;;;;4988201;28;20203;-58
2022/12/02 12:45:55;;;;;;;41.17;16.53;;;4.10;99.90;;;;;;5005289;28;20648;-58
2022/12/02 12:48:24;;;;;;;41.73;17.47;;;4.10;99.90;;;;;;5011009;28;20198;-58
2022/12/02 12:50:53;;;;;;;38.17;16.43;;;4.10;99.90;;;;;;5011855;28;20199;-58
2022/12/02 12:53:22;;;;;;;53.13;20.70;;;4.10;99.90;;;;;;5000013;28;20630;-58
2022/12/02 12:55:50;;;;;;;45.63;19.43;;;4.10;99.90;;;;;;4989458;28;20206;-58
2022/12/02 12:58:25;;;;;;;51.60;19.87;;;4.10;99.90;;;;;;4998884;28;20270;-58